sensor_id;sensor_type;location;lat;lon;timestamp;pressure;altitude;pressure_sealevel;temperature;humidity
73681;BME280;61979;53.536;8.082;2022-08-20T00:00:11;101531.94;;;21.41;78.31
73681;BME280;61979;53.536;8.082;2022-08-20T00:01:13;101531.19;;;21.39;78.72
73681;BME280;61979;53.536;8.082;2022-08-20T00:02:14;101529.66;;;21.35;78.41
73681;BME280;61979;53.536;8.082;2022-08-20T00:04:23;101531.16;;;21.21;79.48
73681;BME280;61979;53.536;8.082;2022-08-20T00:05:31;101524.88;;;21.26;78.85
73681;BME280;61979;53.536;8.082;2022-08-20T00:06:31;101521.06;;;21.33;78.39
73681;BME280;61979;53.536;8.082;2022-08-20T00:07:33;101520.88;;;21.38;78.06
73681;BME280;61979;53.536;8.082;2022-08-20T00:08:34;101517.16;;;21.25;78.62
73681;BME280;61979;53.536;8.082;2022-08-20T00:09:34;101513.44;;;21.30;78.62
73681;BME280;61979;53.536;8.082;2022-08-20T00:10:38;101521.94;;;21.34;78.12
73681;BME280;61979;53.536;8.082;2022-08-20T00:11:39;101511.91;;;21.26;77.88
73681;BME280;61979;53.536;8.082;2022-08-20T00:12:43;101516.94;;;21.29;78.42
73681;BME280;61979;53.536;8.082;2022-08-20T00:13:47;101515.13;;;21.31;78.26
73681;BME280;61979;53.536;8.082;2022-08-20T00:14:48;101521.06;;;21.33;78.37
73681;BME280;61979;53.536;8.082;2022-08-20T00:15:49;101529.66;;;21.35;77.89
73681;BME280;61979;53.536;8.082;2022-08-20T00:16:49;101523.56;;;21.36;77.83
73681;BME280;61979;53.536;8.082;2022-08-20T00:17:51;101524.38;;;21.37;77.68
73681;BME280;61979;53.536;8.082;2022-08-20T00:18:51;101522.75;;;21.34;78.05
73681;BME280;61979;53.536;8.082;2022-08-20T00:19:52;101526.19;;;21.35;77.63
73681;BME280;61979;53.536;8.082;2022-08-20T00:20:53;101516.94;;;21.29;78.46
73681;BME280;61979;53.536;8.082;2022-08-20T00:21:55;101525.50;;;21.31;77.94
73681;BME280;61979;53.536;8.082;2022-08-20T00:22:56;101522.69;;;21.17;77.91
73681;BME280;61979;53.536;8.082;2022-08-20T00:23:56;101524.50;;;21.15;78.55
73681;BME280;61979;53.536;8.082;2022-08-20T00:24:57;101530.59;;;21.14;78.87
73681;BME280;61979;53.536;8.082;2022-08-20T00:25:57;101528.88;;;21.15;78.42
73681;BME280;61979;53.536;8.082;2022-08-20T00:26:57;101528.00;;;21.14;78.00
73681;BME280;61979;53.536;8.082;2022-08-20T00:27:58;101525.78;;;21.07;79.63
73681;BME280;61979;53.536;8.082;2022-08-20T00:28:58;101527.44;;;21.08;79.31
73681;BME280;61979;53.536;8.082;2022-08-20T00:29:59;101528.28;;;21.08;79.17
73681;BME280;61979;53.536;8.082;2022-08-20T00:31:06;101530.88;;;21.08;78.56
73681;BME280;61979;53.536;8.082;2022-08-20T00:32:07;101530.09;;;21.06;78.96
73681;BME280;61979;53.536;8.082;2022-08-20T00:33:14;101530.19;;;21.05;78.76
73681;BME280;61979;53.536;8.082;2022-08-20T00:34:14;101533.25;;;20.94;79.74
73681;BME280;61979;53.536;8.082;2022-08-20T00:35:17;101527.31;;;20.92;79.37
73681;BME280;61979;53.536;8.082;2022-08-20T00:36:19;101534.00;;;20.96;79.76
73681;BME280;61979;53.536;8.082;2022-08-20T00:37:20;101529.25;;;20.87;79.78
73681;BME280;61979;53.536;8.082;2022-08-20T00:38:22;101529.81;;;20.94;79.62
73681;BME280;61979;53.536;8.082;2022-08-20T00:39:22;101525.47;;;20.94;79.66
73681;BME280;61979;53.536;8.082;2022-08-20T00:40:27;101524.41;;;20.98;79.31
73681;BME280;61979;53.536;8.082;2022-08-20T00:41:29;101522.72;;;20.97;79.24
73681;BME280;61979;53.536;8.082;2022-08-20T00:42:30;101517.44;;;21.00;79.12
73681;BME280;61979;53.536;8.082;2022-08-20T00:43:51;101518.13;;;21.04;79.39
73681;BME280;61979;53.536;8.082;2022-08-20T00:44:52;101524.91;;;21.06;79.11
73681;BME280;61979;53.536;8.082;2022-08-20T00:45:53;101523.25;;;21.05;78.99
73681;BME280;61979;53.536;8.082;2022-08-20T00:46:55;101517.13;;;21.06;78.83
73681;BME280;61979;53.536;8.082;2022-08-20T00:47:56;101512.25;;;21.00;79.11
73681;BME280;61979;53.536;8.082;2022-08-20T00:48:58;101519.81;;;21.05;78.71
73681;BME280;61979;53.536;8.082;2022-08-20T00:49:59;101513.00;;;21.02;78.86
73681;BME280;61979;53.536;8.082;2022-08-20T00:51:07;101514.03;;;20.98;79.29
73681;BME280;61979;53.536;8.082;2022-08-20T00:52:13;101510.69;;;20.96;79.45
73681;BME280;61979;53.536;8.082;2022-08-20T00:53:24;101505.28;;;21.01;78.65
73681;BME280;61979;53.536;8.082;2022-08-20T00:54:34;101503.63;;;21.00;78.82
73681;BME280;61979;53.536;8.082;2022-08-20T00:55:38;101503.63;;;21.00;79.23
73681;BME280;61979;53.536;8.082;2022-08-20T00:56:41;101507.84;;;21.02;78.93
73681;BME280;61979;53.536;8.082;2022-08-20T00:57:46;101499.00;;;21.06;78.55
73681;BME280;61979;53.536;8.082;2022-08-20T00:58:48;101510.28;;;21.05;78.37
73681;BME280;61979;53.536;8.082;2022-08-20T00:59:51;101507.63;;;21.07;77.98
73681;BME280;61979;53.536;8.082;2022-08-20T01:00:52;101509.44;;;21.05;78.47
73681;BME280;61979;53.536;8.082;2022-08-20T01:01:53;101505.25;;;21.02;78.06
73681;BME280;61979;53.536;8.082;2022-08-20T01:02:54;101514.03;;;20.98;78.58
73681;BME280;61979;53.536;8.082;2022-08-20T01:03:55;101519.16;;;21.00;78.81
73681;BME280;61979;53.536;8.082;2022-08-20T01:04:56;101514.25;;;20.94;78.75
73681;BME280;61979;53.536;8.082;2022-08-20T01:05:56;101512.50;;;20.94;79.00
73681;BME280;61979;53.536;8.082;2022-08-20T01:06:57;101510.69;;;20.96;78.74
73681;BME280;61979;53.536;8.082;2022-08-20T01:07:57;101511.59;;;20.95;78.31
73681;BME280;61979;53.536;8.082;2022-08-20T01:08:58;101523.66;;;20.96;78.09
73681;BME280;61979;53.536;8.082;2022-08-20T01:10:09;101520.41;;;20.91;78.38
73681;BME280;61979;53.536;8.082;2022-08-20T01:11:10;101520.97;;;20.78;78.72
73681;BME280;61979;53.536;8.082;2022-08-20T01:12:18;101517.56;;;20.77;79.73
73681;BME280;61979;53.536;8.082;2022-08-20T01:13:22;101514.41;;;20.71;80.73
73681;BME280;61979;53.536;8.082;2022-08-20T01:14:23;101520.56;;;20.68;80.35
73681;BME280;61979;53.536;8.082;2022-08-20T01:15:29;101519.38;;;20.75;79.85
73681;BME280;61979;53.536;8.082;2022-08-20T01:16:30;101516.78;;;20.75;79.67
73681;BME280;61979;53.536;8.082;2022-08-20T01:17:34;101517.56;;;20.77;79.63
73681;BME280;61979;53.536;8.082;2022-08-20T01:18:36;101516.00;;;20.73;79.09
73681;BME280;61979;53.536;8.082;2022-08-20T01:19:45;101516.84;;;20.74;79.76
73681;BME280;61979;53.536;8.082;2022-08-20T01:20:48;101512.63;;;20.71;79.60
73681;BME280;61979;53.536;8.082;2022-08-20T01:21:51;101515.75;;;20.79;79.40
73681;BME280;61979;53.536;8.082;2022-08-20T01:24:36;101508.16;;;20.75;79.69
73681;BME280;61979;53.536;8.082;2022-08-20T01:27:04;101513.00;;;20.82;78.61
73681;BME280;61979;53.536;8.082;2022-08-20T01:28:04;101511.94;;;20.88;78.84
73681;BME280;61979;53.536;8.082;2022-08-20T01:29:14;101512.78;;;20.88;78.67
73681;BME280;61979;53.536;8.082;2022-08-20T01:30:15;101514.44;;;20.89;78.76
73681;BME280;61979;53.536;8.082;2022-08-20T01:31:19;101515.38;;;20.88;78.75
73681;BME280;61979;53.536;8.082;2022-08-20T01:32:20;101511.84;;;20.89;78.43
73681;BME280;61979;53.536;8.082;2022-08-20T01:33:21;101515.38;;;20.88;78.54
73681;BME280;61979;53.536;8.082;2022-08-20T01:34:22;101510.19;;;20.88;78.35
73681;BME280;61979;53.536;8.082;2022-08-20T01:35:23;101517.03;;;20.89;78.41
73681;BME280;61979;53.536;8.082;2022-08-20T01:37:34;101522.38;;;20.86;78.78
73681;BME280;61979;53.536;8.082;2022-08-20T01:38:36;101519.19;;;20.80;78.46
73681;BME280;61979;53.536;8.082;2022-08-20T01:39:36;101522.53;;;20.82;78.97
73681;BME280;61979;53.536;8.082;2022-08-20T01:43:06;101517.41;;;20.80;78.73
73681;BME280;61979;53.536;8.082;2022-08-20T01:44:08;101519.09;;;20.81;78.60
73681;BME280;61979;53.536;8.082;2022-08-20T01:45:09;101520.91;;;20.79;78.50
73681;BME280;61979;53.536;8.082;2022-08-20T01:46:09;101526.03;;;20.81;78.37
73681;BME280;61979;53.536;8.082;2022-08-20T01:47:21;101528.50;;;20.84;78.05
73681;BME280;61979;53.536;8.082;2022-08-20T01:48:22;101527.66;;;20.83;78.30
73681;BME280;61979;53.536;8.082;2022-08-20T01:49:32;101522.59;;;20.80;78.59
73681;BME280;61979;53.536;8.082;2022-08-20T01:50:35;101525.97;;;20.82;78.93
73681;BME280;61979;53.536;8.082;2022-08-20T01:51:38;101529.47;;;20.81;78.47
73681;BME280;61979;53.536;8.082;2022-08-20T01:52:43;101527.66;;;20.83;78.34
73681;BME280;61979;53.536;8.082;2022-08-20T01:53:48;101526.03;;;20.81;78.70
73681;BME280;61979;53.536;8.082;2022-08-20T01:54:49;101532.06;;;20.81;78.36
73681;BME280;61979;53.536;8.082;2022-08-20T01:55:49;101533.72;;;20.82;78.82
73681;BME280;61979;53.536;8.082;2022-08-20T01:56:55;101530.31;;;20.82;78.67
73681;BME280;61979;53.536;8.082;2022-08-20T01:57:56;101534.66;;;20.81;78.72
73681;BME280;61979;53.536;8.082;2022-08-20T01:58:59;101528.63;;;20.81;78.92
73681;BME280;61979;53.536;8.082;2022-08-20T02:00:00;101529.47;;;20.81;78.83
73681;BME280;61979;53.536;8.082;2022-08-20T02:01:01;101531.28;;;20.79;78.97
73681;BME280;61979;53.536;8.082;2022-08-20T02:02:01;101528.03;;;20.74;79.11
73681;BME280;61979;53.536;8.082;2022-08-20T02:03:02;101526.25;;;20.76;79.40
73681;BME280;61979;53.536;8.082;2022-08-20T02:04:04;101530.00;;;20.69;79.52
73681;BME280;61979;53.536;8.082;2022-08-20T02:05:05;101528.94;;;20.73;79.08
73681;BME280;61979;53.536;8.082;2022-08-20T02:06:06;101534.22;;;20.72;79.29
73681;BME280;61979;53.536;8.082;2022-08-20T02:07:12;101536.63;;;20.76;78.98
73681;BME280;61979;53.536;8.082;2022-08-20T02:08:13;101536.88;;;20.70;79.44
73681;BME280;61979;53.536;8.082;2022-08-20T02:09:14;101527.34;;;20.71;79.28
73681;BME280;61979;53.536;8.082;2022-08-20T02:10:16;101536.88;;;20.70;79.34
73681;BME280;61979;53.536;8.082;2022-08-20T02:11:18;101536.72;;;20.73;78.74
73681;BME280;61979;53.536;8.082;2022-08-20T02:12:18;101535.19;;;20.69;79.40
73681;BME280;61979;53.536;8.082;2022-08-20T02:13:19;101536.88;;;20.70;79.31
73681;BME280;61979;53.536;8.082;2022-08-20T02:14:19;101539.41;;;20.72;79.39
73681;BME280;61979;53.536;8.082;2022-08-20T02:15:20;101535.81;;;20.74;78.73
73681;BME280;61979;53.536;8.082;2022-08-20T02:16:26;101536.72;;;20.73;79.15
73681;BME280;61979;53.536;8.082;2022-08-20T02:17:28;101538.53;;;20.71;79.07
73681;BME280;61979;53.536;8.082;2022-08-20T02:18:29;101537.84;;;20.68;79.59
73681;BME280;61979;53.536;8.082;2022-08-20T02:19:39;101530.72;;;20.73;79.38
73681;BME280;61979;53.536;8.082;2022-08-20T02:20:41;101533.38;;;20.71;79.31
73681;BME280;61979;53.536;8.082;2022-08-20T02:21:46;101535.91;;;20.73;79.24
73681;BME280;61979;53.536;8.082;2022-08-20T02:22:54;101537.44;;;20.77;78.94
73681;BME280;61979;53.536;8.082;2022-08-20T02:23:55;101537.53;;;20.75;78.96
73681;BME280;61979;53.536;8.082;2022-08-20T02:24:55;101536.63;;;20.76;78.91
73681;BME280;61979;53.536;8.082;2022-08-20T02:25:56;101538.41;;;20.74;79.11
73681;BME280;61979;53.536;8.082;2022-08-20T02:26:56;101544.59;;;20.72;78.75
73681;BME280;61979;53.536;8.082;2022-08-20T02:27:57;101535.13;;;20.71;79.12
73681;BME280;61979;53.536;8.082;2022-08-20T02:28:59;101541.09;;;20.73;78.75
73681;BME280;61979;53.536;8.082;2022-08-20T02:30:00;101549.06;;;20.68;79.20
73681;BME280;61979;53.536;8.082;2022-08-20T02:31:02;101550.78;;;20.68;78.62
73681;BME280;61979;53.536;8.082;2022-08-20T02:32:07;101549.31;;;20.62;79.06
73681;BME280;61979;53.536;8.082;2022-08-20T02:33:10;101544.13;;;20.62;78.83
73681;BME280;61979;53.536;8.082;2022-08-20T02:34:13;101542.59;;;20.58;79.07
73681;BME280;61979;53.536;8.082;2022-08-20T02:35:14;101545.41;;;20.52;79.27
73681;BME280;61979;53.536;8.082;2022-08-20T02:36:15;101547.16;;;20.52;79.43
73681;BME280;61979;53.536;8.082;2022-08-20T02:37:17;101540.00;;;20.58;79.48
73681;BME280;61979;53.536;8.082;2022-08-20T02:38:18;101543.41;;;20.59;80.15
73681;BME280;61979;53.536;8.082;2022-08-20T02:39:18;101545.28;;;20.55;79.70
73681;BME280;61979;53.536;8.082;2022-08-20T02:40:21;101541.72;;;20.58;80.06
73681;BME280;61979;53.536;8.082;2022-08-20T02:41:22;101547.56;;;20.63;79.85
73681;BME280;61979;53.536;8.082;2022-08-20T02:42:22;101547.88;;;20.55;79.81
73681;BME280;61979;53.536;8.082;2022-08-20T02:43:22;101547.75;;;20.58;80.02
73681;BME280;61979;53.536;8.082;2022-08-20T02:44:23;101551.38;;;20.54;80.02
73681;BME280;61979;53.536;8.082;2022-08-20T02:45:23;101550.47;;;20.55;80.17
73681;BME280;61979;53.536;8.082;2022-08-20T02:46:24;101550.41;;;20.57;80.19
73681;BME280;61979;53.536;8.082;2022-08-20T02:47:25;101553.19;;;20.52;80.36
73681;BME280;61979;53.536;8.082;2022-08-20T02:48:27;101545.22;;;20.57;79.77
73681;BME280;61979;53.536;8.082;2022-08-20T02:49:27;101555.66;;;20.55;80.01
73681;BME280;61979;53.536;8.082;2022-08-20T02:50:28;101550.78;;;20.48;79.43
73681;BME280;61979;53.536;8.082;2022-08-20T02:51:29;101553.19;;;20.52;80.24
73681;BME280;61979;53.536;8.082;2022-08-20T02:52:30;101555.13;;;20.47;80.33
73681;BME280;61979;53.536;8.082;2022-08-20T02:53:33;101556.94;;;20.45;80.20
73681;BME280;61979;53.536;8.082;2022-08-20T02:54:34;101560.31;;;20.47;79.04
73681;BME280;61979;53.536;8.082;2022-08-20T02:55:35;101557.84;;;20.44;80.05
73681;BME280;61979;53.536;8.082;2022-08-20T02:56:35;101550.84;;;20.46;79.57
73681;BME280;61979;53.536;8.082;2022-08-20T02:57:36;101560.56;;;20.41;79.93
73681;BME280;61979;53.536;8.082;2022-08-20T02:58:38;101558.88;;;20.40;80.83
73681;BME280;61979;53.536;8.082;2022-08-20T02:59:39;101551.75;;;20.45;79.88
73681;BME280;61979;53.536;8.082;2022-08-20T03:00:40;101548.25;;;20.46;79.75
73681;BME280;61979;53.536;8.082;2022-08-20T03:01:40;101548.34;;;20.45;80.27
73681;BME280;61979;53.536;8.082;2022-08-20T03:02:41;101553.69;;;20.40;80.46
73681;BME280;61979;53.536;8.082;2022-08-20T03:03:42;101552.63;;;20.46;80.49
73681;BME280;61979;53.536;8.082;2022-08-20T03:04:42;101548.41;;;20.43;80.29
73681;BME280;61979;53.536;8.082;2022-08-20T03:05:43;101553.56;;;20.43;79.87
73681;BME280;61979;53.536;8.082;2022-08-20T03:06:43;101546.53;;;20.47;79.90
73681;BME280;61979;53.536;8.082;2022-08-20T03:07:46;101549.94;;;20.47;79.73
73681;BME280;61979;53.536;8.082;2022-08-20T03:08:46;101546.53;;;20.47;79.80
73681;BME280;61979;53.536;8.082;2022-08-20T03:09:47;101548.34;;;20.45;79.85
73681;BME280;61979;53.536;8.082;2022-08-20T03:10:48;101548.25;;;20.46;78.25
73681;BME280;61979;53.536;8.082;2022-08-20T03:11:48;101548.41;;;20.43;79.56
73681;BME280;61979;53.536;8.082;2022-08-20T03:12:49;101548.63;;;20.37;80.65
73681;BME280;61979;53.536;8.082;2022-08-20T03:13:49;101548.44;;;20.42;80.67
73681;BME280;61979;53.536;8.082;2022-08-20T03:14:51;101555.41;;;20.41;79.23
73681;BME280;61979;53.536;8.082;2022-08-20T03:15:54;101551.19;;;20.39;80.43
73681;BME280;61979;53.536;8.082;2022-08-20T03:16:55;101552.81;;;20.41;80.45
73681;BME280;61979;53.536;8.082;2022-08-20T03:17:55;101553.28;;;20.29;80.46
73681;BME280;61979;53.536;8.082;2022-08-20T03:18:56;101547.09;;;20.33;80.72
73681;BME280;61979;53.536;8.082;2022-08-20T03:19:56;101550.31;;;20.38;79.97
73681;BME280;61979;53.536;8.082;2022-08-20T03:20:57;101539.63;;;20.26;80.18
73681;BME280;61979;53.536;8.082;2022-08-20T03:21:57;101551.41;;;20.33;80.21
73681;BME280;61979;53.536;8.082;2022-08-20T03:22:58;101548.97;;;20.30;79.85
73681;BME280;61979;53.536;8.082;2022-08-20T03:23:59;101544.63;;;20.30;79.21
73681;BME280;61979;53.536;8.082;2022-08-20T03:24:59;101548.00;;;20.32;80.01
73681;BME280;61979;53.536;8.082;2022-08-20T03:26:01;101541.06;;;20.33;79.94
73681;BME280;61979;53.536;8.082;2022-08-20T03:27:02;101543.69;;;20.31;79.56
73681;BME280;61979;53.536;8.082;2022-08-20T03:28:03;101550.84;;;20.26;80.22
73681;BME280;61979;53.536;8.082;2022-08-20T03:29:03;101548.06;;;20.31;79.84
73681;BME280;61979;53.536;8.082;2022-08-20T03:30:06;101553.38;;;20.28;80.28
73681;BME280;61979;53.536;8.082;2022-08-20T03:31:07;101559.44;;;20.27;80.06
73681;BME280;61979;53.536;8.082;2022-08-20T03:32:08;101555.34;;;20.21;78.32
73681;BME280;61979;53.536;8.082;2022-08-20T03:33:08;101563.25;;;20.18;80.43
73681;BME280;61979;53.536;8.082;2022-08-20T03:34:09;101558.97;;;20.17;81.37
73681;BME280;61979;53.536;8.082;2022-08-20T03:35:12;101560.78;;;20.15;81.07
73681;BME280;61979;53.536;8.082;2022-08-20T03:36:13;101564.56;;;20.07;81.74
73681;BME280;61979;53.536;8.082;2022-08-20T03:37:13;101562.13;;;20.02;81.85
73681;BME280;61979;53.536;8.082;2022-08-20T03:38:16;101559.56;;;20.02;81.68
73681;BME280;61979;53.536;8.082;2022-08-20T03:39:17;101566.53;;;20.00;82.05
73681;BME280;61979;53.536;8.082;2022-08-20T03:40:22;101561.38;;;20.00;82.19
73681;BME280;61979;53.536;8.082;2022-08-20T03:41:24;101566.66;;;19.97;82.22
73681;BME280;61979;53.536;8.082;2022-08-20T03:42:25;101565.16;;;19.92;83.13
73681;BME280;61979;53.536;8.082;2022-08-20T03:43:25;101569.34;;;19.94;82.39
73681;BME280;61979;53.536;8.082;2022-08-20T03:44:26;101564.31;;;19.91;82.70
73681;BME280;61979;53.536;8.082;2022-08-20T03:45:27;101565.94;;;19.94;81.98
73681;BME280;61979;53.536;8.082;2022-08-20T03:46:28;101568.22;;;20.01;81.76
73681;BME280;61979;53.536;8.082;2022-08-20T03:47:29;101558.53;;;20.06;81.65
73681;BME280;61979;53.536;8.082;2022-08-20T03:48:29;101566.31;;;20.06;81.94
73681;BME280;61979;53.536;8.082;2022-08-20T03:49:29;101560.25;;;20.07;80.53
73681;BME280;61979;53.536;8.082;2022-08-20T03:50:31;101562.75;;;20.09;81.53
73681;BME280;61979;53.536;8.082;2022-08-20T03:51:31;101566.16;;;20.11;80.79
73681;BME280;61979;53.536;8.082;2022-08-20T03:52:32;101567.88;;;20.10;81.38
73681;BME280;61979;53.536;8.082;2022-08-20T03:53:32;101564.72;;;20.04;80.86
73681;BME280;61979;53.536;8.082;2022-08-20T03:54:32;101569.72;;;20.08;81.43
73681;BME280;61979;53.536;8.082;2022-08-20T03:55:33;101575.66;;;20.10;81.02
73681;BME280;61979;53.536;8.082;2022-08-20T03:56:34;101577.53;;;20.07;81.05
73681;BME280;61979;53.536;8.082;2022-08-20T03:57:34;101580.97;;;20.07;81.69
73681;BME280;61979;53.536;8.082;2022-08-20T03:58:35;101570.63;;;20.07;81.09
73681;BME280;61979;53.536;8.082;2022-08-20T03:59:35;101571.34;;;20.11;81.57
73681;BME280;61979;53.536;8.082;2022-08-20T04:00:40;101576.38;;;20.14;81.57
73681;BME280;61979;53.536;8.082;2022-08-20T04:01:41;101586.78;;;20.12;81.77
73681;BME280;61979;53.536;8.082;2022-08-20T04:02:42;101580.59;;;20.16;81.15
73681;BME280;61979;53.536;8.082;2022-08-20T04:03:42;101580.78;;;20.12;81.80
73681;BME280;61979;53.536;8.082;2022-08-20T04:04:47;101572.88;;;20.15;81.49
73681;BME280;61979;53.536;8.082;2022-08-20T04:05:48;101580.69;;;20.13;80.56
73681;BME280;61979;53.536;8.082;2022-08-20T04:06:48;101579.78;;;20.14;80.97
73681;BME280;61979;53.536;8.082;2022-08-20T04:07:49;101574.63;;;20.14;81.53
73681;BME280;61979;53.536;8.082;2022-08-20T04:08:49;101576.19;;;20.18;80.94
73681;BME280;61979;53.536;8.082;2022-08-20T04:09:54;101574.50;;;20.17;81.69
73681;BME280;61979;53.536;8.082;2022-08-20T04:10:55;101571.00;;;20.18;80.87
73681;BME280;61979;53.536;8.082;2022-08-20T04:11:56;101575.28;;;20.19;80.55
73681;BME280;61979;53.536;8.082;2022-08-20T04:12:59;101579.59;;;20.19;80.57
73681;BME280;61979;53.536;8.082;2022-08-20T04:13:59;101583.06;;;20.19;80.46
73681;BME280;61979;53.536;8.082;2022-08-20T04:15:00;101575.28;;;20.19;80.10
73681;BME280;61979;53.536;8.082;2022-08-20T04:16:02;101573.59;;;20.18;80.26
73681;BME280;61979;53.536;8.082;2022-08-20T04:17:07;101580.47;;;20.19;80.28
73681;BME280;61979;53.536;8.082;2022-08-20T04:18:09;101577.09;;;20.17;80.67
73681;BME280;61979;53.536;8.082;2022-08-20T04:19:10;101581.38;;;20.18;80.01
73681;BME280;61979;53.536;8.082;2022-08-20T04:20:12;101575.28;;;20.19;79.66
73681;BME280;61979;53.536;8.082;2022-08-20T04:21:13;101575.66;;;20.10;80.57
73681;BME280;61979;53.536;8.082;2022-08-20T04:22:13;101574.63;;;20.14;80.46
73681;BME280;61979;53.536;8.082;2022-08-20T04:23:14;101573.00;;;20.12;80.95
73681;BME280;61979;53.536;8.082;2022-08-20T04:24:14;101574.75;;;20.11;80.47
73681;BME280;61979;53.536;8.082;2022-08-20T04:25:15;101579.09;;;20.11;80.38
73681;BME280;61979;53.536;8.082;2022-08-20T04:26:15;101589.38;;;20.12;79.82
73681;BME280;61979;53.536;8.082;2022-08-20T04:27:16;101585.97;;;20.12;80.40
73681;BME280;61979;53.536;8.082;2022-08-20T04:28:20;101591.19;;;20.10;80.59
73681;BME280;61979;53.536;8.082;2022-08-20T04:29:28;101593.09;;;20.05;80.20
73681;BME280;61979;53.536;8.082;2022-08-20T04:30:28;101585.41;;;20.04;80.48
73681;BME280;61979;53.536;8.082;2022-08-20T04:31:29;101590.50;;;20.05;80.53
73681;BME280;61979;53.536;8.082;2022-08-20T04:32:33;101595.00;;;20.00;80.89
73681;BME280;61979;53.536;8.082;2022-08-20T04:33:35;101590.75;;;19.99;80.35
73681;BME280;61979;53.536;8.082;2022-08-20T04:34:36;101592.47;;;19.99;81.15
73681;BME280;61979;53.536;8.082;2022-08-20T04:35:36;101598.69;;;19.95;81.38
73681;BME280;61979;53.536;8.082;2022-08-20T04:36:36;101595.25;;;19.94;81.18
73681;BME280;61979;53.536;8.082;2022-08-20T04:37:37;101596.94;;;19.95;80.88
73681;BME280;61979;53.536;8.082;2022-08-20T04:38:41;101599.47;;;19.97;80.49
73681;BME280;61979;53.536;8.082;2022-08-20T04:39:41;101601.09;;;19.99;80.54
73681;BME280;61979;53.536;8.082;2022-08-20T04:40:41;101596.16;;;19.93;80.66
73681;BME280;61979;53.536;8.082;2022-08-20T04:41:57;101607.44;;;19.91;81.17
73681;BME280;61979;53.536;8.082;2022-08-20T04:42:58;101603.19;;;19.90;81.08
73681;BME280;61979;53.536;8.082;2022-08-20T04:43:58;101601.56;;;19.87;80.00
73681;BME280;61979;53.536;8.082;2022-08-20T04:44:59;101599.44;;;19.76;81.64
73681;BME280;61979;53.536;8.082;2022-08-20T04:46:03;101608.19;;;19.72;80.33
73681;BME280;61979;53.536;8.082;2022-08-20T04:47:04;101610.78;;;19.72;80.99
73681;BME280;61979;53.536;8.082;2022-08-20T04:48:07;101612.56;;;19.71;81.72
73681;BME280;61979;53.536;8.082;2022-08-20T04:49:08;101609.78;;;19.76;81.22
73681;BME280;61979;53.536;8.082;2022-08-20T04:50:11;101610.75;;;19.73;81.35
73681;BME280;61979;53.536;8.082;2022-08-20T04:51:11;101605.75;;;19.69;82.26
73681;BME280;61979;53.536;8.082;2022-08-20T04:52:14;101615.31;;;19.67;81.69
73681;BME280;61979;53.536;8.082;2022-08-20T04:53:17;101611.59;;;19.74;81.52
73681;BME280;61979;53.536;8.082;2022-08-20T04:54:17;101616.66;;;19.77;81.37
73681;BME280;61979;53.536;8.082;2022-08-20T04:55:18;101620.88;;;19.79;81.28
73681;BME280;61979;53.536;8.082;2022-08-20T04:56:25;101615.88;;;19.75;81.26
73681;BME280;61979;53.536;8.082;2022-08-20T04:57:25;101613.16;;;19.77;81.11
73681;BME280;61979;53.536;8.082;2022-08-20T04:58:30;101621.69;;;19.79;80.72
73681;BME280;61979;53.536;8.082;2022-08-20T04:59:32;101624.13;;;19.84;80.86
73681;BME280;61979;53.536;8.082;2022-08-20T05:00:33;101619.38;;;19.74;81.37
73681;BME280;61979;53.536;8.082;2022-08-20T05:01:33;101622.03;;;19.71;81.28
73681;BME280;61979;53.536;8.082;2022-08-20T05:02:34;101626.09;;;19.77;80.64
73681;BME280;61979;53.536;8.082;2022-08-20T05:03:36;101618.56;;;19.72;80.54
73681;BME280;61979;53.536;8.082;2022-08-20T05:04:37;101620.50;;;19.67;80.71
73681;BME280;61979;53.536;8.082;2022-08-20T05:05:38;101622.16;;;19.68;81.16
73681;BME280;61979;53.536;8.082;2022-08-20T05:06:41;101627.22;;;19.71;81.09
73681;BME280;61979;53.536;8.082;2022-08-20T05:07:43;101632.31;;;19.74;80.90
73681;BME280;61979;53.536;8.082;2022-08-20T05:08:47;101628.69;;;19.77;80.33
73681;BME280;61979;53.536;8.082;2022-08-20T05:09:47;101631.63;;;19.69;80.49
73681;BME280;61979;53.536;8.082;2022-08-20T05:10:48;101636.63;;;19.73;79.40
73681;BME280;61979;53.536;8.082;2022-08-20T05:11:49;101625.84;;;19.62;80.26
73681;BME280;61979;53.536;8.082;2022-08-20T05:12:50;101628.41;;;19.62;80.38
73681;BME280;61979;53.536;8.082;2022-08-20T05:13:50;101628.16;;;19.68;79.46
73681;BME280;61979;53.536;8.082;2022-08-20T05:14:51;101634.81;;;19.75;77.81
73681;BME280;61979;53.536;8.082;2022-08-20T05:15:54;101634.75;;;19.77;77.42
73681;BME280;61979;53.536;8.082;2022-08-20T05:16:55;101636.41;;;19.79;78.33
73681;BME280;61979;53.536;8.082;2022-08-20T05:17:58;101642.66;;;19.74;76.97
73681;BME280;61979;53.536;8.082;2022-08-20T05:19:04;101639.94;;;19.77;78.13
73681;BME280;61979;53.536;8.082;2022-08-20T05:20:07;101637.22;;;19.79;77.91
73681;BME280;61979;53.536;8.082;2022-08-20T05:21:07;101638.09;;;19.80;77.71
73681;BME280;61979;53.536;8.082;2022-08-20T05:22:08;101641.44;;;19.82;77.89
73681;BME280;61979;53.536;8.082;2022-08-20T05:23:10;101643.09;;;19.84;78.17
73681;BME280;61979;53.536;8.082;2022-08-20T05:24:11;101637.06;;;19.84;77.45
73681;BME280;61979;53.536;8.082;2022-08-20T05:25:12;101639.72;;;19.83;78.40
73681;BME280;61979;53.536;8.082;2022-08-20T05:26:12;101637.13;;;19.83;78.29
73681;BME280;61979;53.536;8.082;2022-08-20T05:27:17;101638.31;;;19.74;78.87
73681;BME280;61979;53.536;8.082;2022-08-20T05:28:21;101644.09;;;19.80;79.00
73681;BME280;61979;53.536;8.082;2022-08-20T05:29:22;101641.56;;;19.79;77.78
73681;BME280;61979;53.536;8.082;2022-08-20T05:30:23;101643.31;;;19.78;79.60
73681;BME280;61979;53.536;8.082;2022-08-20T05:31:27;101642.41;;;19.79;77.64